createdAt,value
2022-07-27T00:02:16.130Z,3.83
2022-07-27T00:04:43.485Z,3.08
2022-07-27T00:07:10.792Z,3.67
2022-07-27T00:09:38.122Z,3.38
2022-07-27T00:12:05.891Z,2.80
2022-07-27T00:14:33.340Z,2.97
2022-07-27T00:17:00.807Z,3.22
2022-07-27T00:19:28.140Z,3.42
2022-07-27T00:21:55.507Z,2.97
2022-07-27T00:24:22.731Z,3.13
2022-07-27T00:26:50.139Z,3.03
2022-07-27T00:29:17.669Z,3.05
2022-07-27T00:31:45.197Z,3.25
2022-07-27T00:34:12.554Z,2.85
2022-07-27T00:36:39.821Z,3.25
2022-07-27T00:39:07.130Z,2.70
2022-07-27T00:41:34.526Z,3.00
2022-07-27T00:44:02.047Z,2.92
2022-07-27T00:46:29.733Z,2.90
2022-07-27T00:48:57.159Z,3.10
2022-07-27T00:51:25.877Z,2.85
2022-07-27T00:53:57.228Z,2.80
2022-07-27T00:56:25.089Z,2.40
2022-07-27T00:58:53.886Z,2.80
2022-07-27T01:01:21.438Z,2.45
2022-07-27T01:03:48.980Z,2.63
2022-07-27T01:06:23.298Z,2.38
2022-07-27T01:09:18.490Z,2.58
2022-07-27T01:11:47.640Z,2.30
2022-07-27T01:14:16.696Z,2.50
2022-07-27T01:16:44.713Z,2.30
2022-07-27T01:19:14.356Z,2.10
2022-07-27T01:21:41.892Z,2.08
2022-07-27T01:24:09.710Z,2.38
2022-07-27T01:26:39.054Z,1.88
2022-07-27T01:29:06.666Z,2.13
2022-07-27T01:31:34.052Z,2.75
2022-07-27T01:34:01.612Z,2.60
2022-07-27T01:36:29.001Z,2.50
2022-07-27T01:38:56.932Z,2.17
2022-07-27T01:41:24.647Z,2.30
2022-07-27T01:43:51.967Z,2.53
2022-07-27T01:46:19.310Z,2.25
2022-07-27T01:48:46.963Z,2.17
2022-07-27T01:51:14.538Z,2.60
2022-07-27T01:53:41.972Z,2.75
2022-07-27T01:56:13.313Z,2.30
2022-07-27T01:58:43.108Z,2.72
2022-07-27T02:01:11.048Z,2.47
2022-07-27T02:03:38.323Z,2.50
2022-07-27T02:06:06.427Z,2.67
2022-07-27T02:08:35.308Z,2.78
2022-07-27T02:11:21.772Z,2.58
2022-07-27T02:13:49.964Z,2.65
2022-07-27T02:16:18.768Z,2.60
2022-07-27T02:18:48.668Z,2.97
2022-07-27T02:21:16.507Z,3.05
2022-07-27T02:23:45.366Z,2.75
2022-07-27T02:26:12.781Z,2.80
2022-07-27T02:28:40.075Z,2.80
2022-07-27T02:31:07.474Z,2.90
2022-07-27T02:33:34.928Z,2.47
2022-07-27T02:36:02.595Z,2.50
2022-07-27T02:38:29.807Z,2.35
2022-07-27T02:40:57.125Z,2.45
2022-07-27T02:43:24.408Z,2.33
2022-07-27T02:45:52.617Z,2.40
2022-07-27T02:48:20.227Z,2.78
2022-07-27T02:50:48.537Z,2.72
2022-07-27T02:53:15.955Z,2.65
2022-07-27T02:55:43.517Z,2.45
2022-07-27T02:58:10.939Z,2.75
2022-07-27T03:00:38.465Z,2.60
2022-07-27T03:03:05.873Z,2.97
2022-07-27T03:05:33.807Z,2.42
2022-07-27T03:08:01.717Z,2.83
2022-07-27T03:10:29.059Z,3.15
2022-07-27T03:12:56.518Z,2.47
2022-07-27T03:15:24.579Z,3.00
2022-07-27T03:17:54.338Z,3.03
2022-07-27T03:20:21.834Z,3.17
2022-07-27T03:22:49.222Z,3.13
2022-07-27T03:25:16.568Z,2.38
2022-07-27T03:27:43.884Z,2.90
2022-07-27T03:30:11.672Z,2.97
2022-07-27T03:32:38.952Z,2.70
2022-07-27T03:35:06.817Z,3.13
2022-07-27T03:37:34.889Z,3.47
2022-07-27T03:40:02.147Z,3.13
2022-07-27T03:42:29.348Z,2.97
2022-07-27T03:44:56.850Z,3.55
2022-07-27T03:47:25.263Z,3.58
2022-07-27T03:49:53.179Z,3.40
2022-07-27T03:52:21.052Z,4.00
2022-07-27T03:54:48.588Z,3.20
2022-07-27T03:57:15.998Z,3.58
2022-07-27T03:59:43.266Z,3.22
2022-07-27T04:02:10.840Z,3.22
2022-07-27T04:04:38.129Z,3.58
2022-07-27T04:07:05.481Z,3.55
2022-07-27T04:09:33.006Z,3.20
2022-07-27T04:12:00.595Z,5.75
2022-07-27T04:14:28.258Z,5.07
2022-07-27T04:16:55.856Z,5.55
2022-07-27T04:19:23.391Z,3.88
2022-07-27T04:21:50.602Z,3.85
2022-07-27T04:24:17.822Z,3.63
2022-07-27T04:26:45.031Z,3.58
2022-07-27T04:29:15.749Z,3.25
2022-07-27T04:31:47.081Z,3.30
2022-07-27T04:34:14.457Z,3.72
2022-07-27T04:36:41.824Z,3.53
2022-07-27T04:39:09.436Z,4.05
2022-07-27T04:41:37.060Z,4.00
2022-07-27T04:44:04.477Z,3.75
2022-07-27T04:46:31.830Z,3.67
2022-07-27T04:48:59.289Z,3.88
2022-07-27T04:51:29.009Z,3.55
2022-07-27T04:54:00.038Z,4.20
2022-07-27T04:56:27.651Z,3.95
2022-07-27T04:58:55.685Z,3.25
2022-07-27T05:01:23.614Z,3.15
2022-07-27T05:03:51.334Z,4.38
2022-07-27T05:06:19.388Z,3.38
2022-07-27T05:08:46.729Z,3.85
2022-07-27T05:11:13.994Z,3.90
2022-07-27T05:13:41.752Z,3.90
2022-07-27T05:16:12.326Z,4.30
2022-07-27T05:18:40.606Z,3.35
2022-07-27T05:21:08.684Z,3.30
2022-07-27T05:23:37.018Z,3.88
2022-07-27T05:26:04.526Z,3.33
2022-07-27T05:28:31.970Z,3.33
2022-07-27T05:30:59.219Z,3.28
2022-07-27T05:33:26.460Z,3.35
2022-07-27T05:35:55.413Z,3.00
2022-07-27T05:38:23.279Z,2.70
2022-07-27T05:40:50.536Z,2.55
2022-07-27T05:43:17.913Z,2.50
2022-07-27T05:45:45.405Z,2.83
2022-07-27T05:48:12.797Z,2.45
2022-07-27T05:50:40.058Z,2.78
2022-07-27T05:53:07.556Z,2.72
2022-07-27T05:55:34.828Z,2.42
2022-07-27T05:58:02.311Z,2.55
2022-07-27T06:00:29.776Z,2.28
2022-07-27T06:02:57.151Z,2.10
2022-07-27T06:05:24.588Z,2.42
2022-07-27T06:08:01.025Z,2.45
2022-07-27T06:10:33.914Z,2.17
2022-07-27T06:13:06.966Z,1.90
2022-07-27T06:15:35.100Z,1.75
2022-07-27T06:18:04.032Z,1.67
2022-07-27T06:20:31.572Z,1.67
2022-07-27T06:23:00.637Z,1.88
2022-07-27T06:25:34.244Z,1.95
2022-07-27T06:28:06.410Z,1.73
2022-07-27T06:30:33.866Z,1.50
2022-07-27T06:33:07.615Z,1.40
2022-07-27T06:35:37.857Z,1.92
2022-07-27T06:38:07.127Z,1.90
2022-07-27T06:40:34.707Z,1.45
2022-07-27T06:43:02.064Z,1.58
2022-07-27T06:45:29.415Z,1.45
2022-07-27T06:47:56.992Z,1.45
2022-07-27T06:50:24.911Z,1.55
2022-07-27T06:52:52.520Z,1.38
2022-07-27T06:55:19.999Z,1.70
2022-07-27T06:57:47.267Z,1.70
2022-07-27T07:00:15.841Z,1.30
2022-07-27T07:02:53.517Z,1.40
2022-07-27T07:05:21.446Z,1.10
2022-07-27T07:07:49.072Z,1.25
2022-07-27T07:10:16.344Z,1.35
2022-07-27T07:12:43.927Z,1.15
2022-07-27T07:15:11.776Z,1.55
2022-07-27T07:17:39.862Z,1.73
2022-07-27T07:20:08.324Z,1.40
2022-07-27T07:22:35.673Z,1.52
2022-07-27T07:25:04.020Z,1.08
2022-07-27T07:27:31.682Z,1.10
2022-07-27T07:29:59.393Z,0.85
2022-07-27T07:32:33.043Z,1.20
2022-07-27T07:35:01.638Z,1.10
2022-07-27T07:37:33.426Z,0.90
2022-07-27T07:40:18.770Z,1.10
2022-07-27T07:42:58.310Z,0.98
2022-07-27T07:45:25.932Z,1.10
2022-07-27T07:47:54.179Z,1.20
2022-07-27T07:50:22.053Z,0.95
2022-07-27T07:52:53.975Z,0.68
2022-07-27T07:55:23.573Z,0.80
2022-07-27T07:57:51.714Z,0.93
2022-07-27T08:00:20.571Z,1.15
2022-07-27T08:02:48.917Z,0.73
2022-07-27T08:05:17.206Z,0.90
2022-07-27T08:07:45.601Z,0.95
2022-07-27T08:10:15.236Z,1.05
2022-07-27T08:12:45.084Z,1.08
2022-07-27T08:15:13.629Z,1.08
2022-07-27T08:17:41.532Z,0.88
2022-07-27T08:20:09.546Z,1.30
2022-07-27T08:22:37.030Z,1.58
2022-07-27T08:25:05.817Z,1.00
2022-07-27T08:27:39.112Z,0.90
2022-07-27T08:30:11.613Z,0.90
2022-07-27T08:32:50.247Z,0.93
2022-07-27T08:35:22.613Z,1.50
2022-07-27T08:37:50.243Z,1.23
2022-07-27T08:43:07.592Z,0.90
2022-07-27T08:45:35.365Z,1.50
2022-07-27T08:48:04.244Z,1.48
2022-07-27T08:50:31.656Z,1.20
2022-07-27T08:53:08.285Z,1.38
2022-07-27T08:55:42.235Z,1.42
2022-07-27T08:58:10.671Z,1.35
2022-07-27T09:00:41.275Z,1.40
2022-07-27T09:03:16.354Z,1.70
2022-07-27T09:05:49.255Z,1.23
2022-07-27T09:08:18.441Z,1.35
2022-07-27T09:10:45.866Z,1.17
2022-07-27T09:13:21.167Z,1.42
2022-07-27T09:16:17.039Z,1.38
2022-07-27T09:18:41.809Z,1.20
2022-07-27T09:21:24.770Z,1.38
2022-07-27T09:23:55.880Z,1.27
2022-07-27T09:26:33.572Z,1.13
2022-07-27T09:29:06.122Z,1.13
2022-07-27T09:31:44.551Z,1.13
2022-07-27T09:34:12.934Z,1.30
2022-07-27T09:36:54.658Z,1.00
2022-07-27T09:39:24.510Z,1.20
2022-07-27T09:41:55.342Z,1.13
2022-07-27T09:44:42.627Z,1.43
2022-07-27T09:47:23.986Z,1.33
2022-07-27T09:49:51.405Z,1.20
2022-07-27T09:52:26.132Z,1.00
2022-07-27T09:54:53.748Z,1.02
2022-07-27T09:57:21.318Z,1.20
2022-07-27T09:59:48.765Z,1.27
2022-07-27T10:02:16.489Z,1.20
2022-07-27T10:04:44.759Z,1.30
2022-07-27T10:07:13.948Z,1.20
2022-07-27T10:09:42.235Z,1.40
2022-07-27T10:12:09.897Z,1.10
2022-07-27T10:14:37.269Z,1.30
2022-07-27T10:17:06.572Z,1.23
2022-07-27T10:19:48.197Z,1.40
2022-07-27T10:22:15.991Z,1.45
2022-07-27T10:24:43.679Z,1.40
2022-07-27T10:27:31.268Z,1.17
2022-07-27T10:29:59.346Z,1.10
2022-07-27T10:32:31.399Z,1.20
2022-07-27T10:35:00.027Z,1.35
2022-07-27T10:37:32.623Z,1.15
2022-07-27T10:40:24.856Z,1.20
2022-07-27T10:43:17.051Z,1.23
2022-07-27T10:48:44.236Z,1.60
2022-07-27T10:51:16.782Z,1.60
2022-07-27T10:56:47.367Z,1.50
2022-07-27T10:59:15.145Z,1.27
2022-07-27T11:01:58.837Z,1.40
2022-07-27T11:04:26.670Z,1.33
2022-07-27T11:10:03.504Z,1.17
2022-07-27T11:12:31.929Z,1.20
2022-07-27T11:15:01.260Z,1.42
2022-07-27T11:20:23.730Z,1.42
2022-07-27T11:25:38.839Z,1.30
2022-07-27T11:28:09.664Z,1.60
2022-07-27T11:30:37.423Z,1.45
2022-07-27T11:33:05.637Z,1.40
2022-07-27T11:35:33.080Z,1.60
2022-07-27T11:38:06.601Z,1.38
2022-07-27T11:40:56.842Z,1.40
2022-07-27T11:43:38.966Z,1.20
2022-07-27T11:46:23.310Z,1.60
2022-07-27T11:49:07.004Z,1.85
2022-07-27T11:51:40.971Z,1.90
2022-07-27T11:54:30.411Z,1.48
2022-07-27T11:57:03.862Z,1.60
2022-07-27T11:59:39.722Z,1.38
2022-07-27T12:02:20.033Z,1.23
2022-07-27T12:04:49.754Z,1.40
2022-07-27T12:07:20.345Z,1.30
2022-07-27T12:09:57.281Z,1.50
2022-07-27T12:12:29.390Z,1.48
2022-07-27T12:15:16.673Z,1.15
2022-07-27T12:17:59.799Z,1.05
2022-07-27T12:20:35.191Z,1.23
2022-07-27T12:23:08.094Z,1.58
2022-07-27T12:25:36.774Z,1.15
2022-07-27T12:28:07.097Z,1.13
2022-07-27T12:30:45.648Z,1.17
2022-07-27T12:33:25.230Z,1.42
2022-07-27T12:35:52.608Z,1.20
2022-07-27T12:38:19.886Z,1.30
2022-07-27T12:40:58.175Z,1.63
2022-07-27T12:43:27.781Z,1.58
2022-07-27T12:45:56.030Z,1.75
2022-07-27T12:48:26.572Z,1.70
2022-07-27T12:51:02.658Z,2.60
2022-07-27T12:53:30.853Z,2.53
2022-07-27T12:56:05.389Z,2.20
2022-07-27T12:58:33.017Z,2.88
2022-07-27T13:01:01.273Z,2.15
2022-07-27T13:03:28.574Z,2.15
2022-07-27T13:05:55.845Z,2.50
2022-07-27T13:08:23.751Z,2.08
2022-07-27T13:10:54.130Z,2.45
2022-07-27T13:13:24.963Z,2.38
2022-07-27T13:15:52.932Z,1.90
2022-07-27T13:18:23.780Z,2.78
2022-07-27T13:20:51.963Z,1.63
2022-07-27T13:23:20.961Z,1.60
2022-07-27T13:25:48.515Z,2.05
2022-07-27T13:28:16.010Z,1.42
2022-07-27T13:30:43.478Z,1.90
2022-07-27T13:33:11.171Z,1.90
2022-07-27T13:35:38.397Z,1.98
2022-07-27T13:38:05.649Z,1.73
2022-07-27T13:40:35.278Z,1.90
2022-07-27T13:43:02.638Z,1.90
2022-07-27T13:45:43.179Z,1.80
2022-07-27T13:48:12.309Z,1.30
2022-07-27T13:50:40.060Z,1.83
2022-07-27T13:53:07.439Z,1.90
2022-07-27T13:55:35.538Z,1.95
2022-07-27T13:58:02.926Z,3.08
2022-07-27T14:00:30.202Z,2.10
2022-07-27T14:02:57.690Z,2.00
2022-07-27T14:05:25.661Z,1.85
2022-07-27T14:07:55.338Z,1.77
2022-07-27T14:10:42.210Z,2.03
2022-07-27T14:13:13.260Z,2.10
2022-07-27T14:15:54.327Z,2.40
2022-07-27T14:20:50.853Z,1.83
2022-07-27T14:23:18.602Z,2.00
2022-07-27T14:25:46.508Z,1.70
2022-07-27T14:28:13.774Z,1.80
2022-07-27T14:30:41.423Z,1.65
2022-07-27T14:33:09.198Z,1.90
2022-07-27T14:35:40.528Z,1.70
